• Join FlightAware (Why Join?)
  • Login
  • US Flag 
05:06AM EDT


 

Airport Tracker/Info


-or-


 

Live Flight TrackerFlight Track Log ✈ JZA8745 ✈ 11-Jul-2013 ✈ CZBF - CYUL

Flight Track Log - Related Links

Times and Time Zones

All times are in EDT time to prevent confusion due to time zone crossing. See the JZA8745 flight status page for this flight to view local times or setup timezone preferences in your user account.

Time Position Orientation Groundspeed Altitude Reporting Facility
EDT Latitude Longitude Course Direction KTS MPH feet Rate Location/Type
03:55PM 47.5500 -65.9167 240° Southwest 130 150 3,800  Level Moncton Center
03:56PM 47.5333 -65.9667 244° Southwest 150 173 5,100 1,200 Climbing Moncton Center
03:57PM 47.5167 -66.0167 244° Southwest 150 173 6,300 1,320 Climbing Moncton Center
03:58PM 47.5000 -66.0500 234° Southwest 150 173 7,800 1,380 Climbing Moncton Center
03:59PM 47.4833 -66.1000 244° Southwest 140 161 9,100 1,020 Climbing Moncton Center
04:00PM 47.4667 -66.1833 254° West 140 161 9,900 780 Climbing Moncton Center
04:01PM 47.3734 -66.4226 240° Southwest  Level FlightAware Approximate
04:01PM 47.4500 -66.2333 244° Southwest 160 184 10,700  Level Moncton Center
04:02PM 47.4333 -66.2833 244° Southwest 160 184 11,400 780 Climbing Moncton Center
04:03PM 47.4000 -66.3500 234° Southwest 170 196 12,300 780 Climbing Moncton Center
04:04PM 47.3833 -66.4000 244° Southwest 170 196 13,000 660 Climbing Moncton Center
04:05PM 47.3667 -66.4667 250° West 170 196 13,700 720 Climbing Moncton Center
04:06PM 47.3333 -66.5500 239° Southwest 180 207 14,500 720 Climbing Moncton Center
04:07PM 47.3167 -66.6000 244° Southwest 180 207 15,200 660 Climbing Moncton Center
04:08PM 47.3000 -66.6667 250° West 180 207 15,900 600 Climbing Moncton Center
04:09PM 47.2500 -66.7333 222° Southwest 180 207 16,500 540 Climbing Moncton Center
04:10PM 47.2333 -66.7833 244° Southwest 180 207 17,000 600 Climbing Moncton Center
04:11PM 47.2167 -66.8667 254° West 180 207 17,700 660 Climbing Moncton Center
04:12PM 47.1833 -66.9333 234° Southwest 170 196 18,400 600 Climbing Moncton Center
04:13PM 47.1667 -66.9833 244° Southwest 180 207 18,900 480 Climbing Moncton Center
04:14PM 47.1500 -67.0500 250° West 170 196 19,400 420 Climbing Moncton Center
04:15PM 47.1333 -67.1333 254° West 170 196 19,800 300 Climbing Moncton Center
04:16PM 47.1153 -67.1792 240° Southwest 184 212 20,000 60 Climbing Boston Center
04:17PM 47.0892 -67.2486 241° Southwest 194 223 20,000  Level Boston Center
04:18PM 47.0611 -67.3214 241° Southwest 194 223 20,000  Level Boston Center
04:19PM 47.0353 -67.3969 243° Southwest 207 238 20,000  Level Boston Center
04:20PM 47.0072 -67.4725 241° Southwest 214 246 20,000  Level Boston Center
04:21PM 46.9811 -67.5447 242° Southwest 207 238 20,000  Level Boston Center
04:22PM 46.9528 -67.6172 240° Southwest 207 238 20,000  Level Boston Center
04:23PM 46.9264 -67.6864 241° Southwest 215 247 20,000  Level Boston Center
04:24PM 46.8981 -67.7589 240° Southwest 209 241 20,000  Level Boston Center
04:25PM 46.8719 -67.8308 242° Southwest 209 241 20,000  Level Boston Center
04:26PM 46.8475 -67.8997 243° Southwest 209 241 20,000  Level Boston Center
04:27PM 46.8192 -67.9747 241° Southwest 209 241 20,000  Level Boston Center
04:28PM 46.7864 -68.0500 238° Southwest 216 249 20,000  Level Boston Center
04:29PM 46.7622 -68.1278 246° West 216 249 20,000  Level Boston Center
04:30PM 46.7406 -68.2172 251° West 216 249 20,000  Level Boston Center
04:31PM 46.7183 -68.2947 247° West 216 249 20,000  Level Boston Center
04:32PM 46.6939 -68.3692 244° Southwest 216 249 20,000  Level Boston Center
04:33PM 46.6694 -68.4464 245° Southwest 216 249 20,000  Level Boston Center
04:34PM 46.6492 -68.5206 248° West 216 249 20,000  Level Boston Center
04:35PM 46.6289 -68.6006 250° West 210 242 20,000  Level Boston Center
04:36PM 46.6061 -68.6686 244° Southwest 210 242 20,000  Level Boston Center
04:37PM 46.5833 -68.7425 246° West 204 235 20,000  Level Boston Center
04:38PM 46.5608 -68.8164 246° West 204 235 20,000  Level Boston Center
04:39PM 46.5381 -68.8903 246° West 204 235 20,000  Level Boston Center
04:40PM 46.5153 -68.9672 247° West 204 235 20,000  Level Boston Center
04:41PM 46.4925 -69.0439 247° West 204 235 20,000  Level Boston Center
04:42PM 46.4697 -69.1206 247° West 206 237 20,000  Level Boston Center
04:43PM 46.4486 -69.1822 244° Southwest 211 243 20,000  Level Boston Center
04:44PM 46.4236 -69.2619 246° West 211 243 20,000  Level Boston Center
04:45PM 46.4006 -69.3353 246° West 211 243 20,000  Level Boston Center
04:46PM 46.3797 -69.4089 248° West 211 243 20,000  Level Boston Center
04:47PM 46.3525 -69.4883 244° Southwest 211 243 20,000  Level Boston Center
04:48PM 46.3256 -69.5800 247° West 211 243 20,000  Level Boston Center
04:49PM 46.3003 -69.6533 244° Southwest 211 243 20,000  Level Boston Center
04:50PM 46.2794 -69.7325 249° West 211 243 20,000  Level Boston Center
04:51PM 46.2539 -69.8086 244° Southwest 211 243 20,000  Level Boston Center
04:52PM 46.2286 -69.8847 244° Southwest 216 249 20,000  Level Boston Center
04:53PM 46.2053 -69.9608 246° West 216 249 20,000  Level Boston Center
04:54PM 46.1819 -70.0339 245° Southwest 216 249 20,000  Level Boston Center
04:55PM 46.1583 -70.1128 247° West 216 249 20,000  Level Boston Center
04:56PM 46.1350 -70.1886 246° West 216 249 20,000  Level Boston Center
04:57PM 46.1000 -70.2667 237° Southwest 210 242 20,000  Level Moncton Center
04:58PM 46.0667 -70.3333 234° Southwest 210 242 20,000  Level Moncton Center
04:59PM 46.0500 -70.4333 257° West 210 242 20,000  Level Moncton Center
05:00PM 46.0333 -70.5000 250° West 210 242 20,000  Level Moncton Center
05:01PM 46.0000 -70.5667 234° Southwest 210 242 20,000  Level Moncton Center
05:02PM 45.9833 -70.6333 250° West 210 242 20,000  Level Moncton Center
05:03PM 45.9500 -70.7000 234° Southwest 210 242 20,000  Level Moncton Center
05:04PM 45.9333 -70.8000 257° West 210 242 20,000  Level Moncton Center
05:05PM 45.9000 -70.8667 234° Southwest 200 230 20,000  Level Moncton Center
05:06PM 45.9000 -70.9333 270° West 210 242 20,000  Level Moncton Center
05:07PM 45.9000 -71.0333 270° West 200 230 20,000  Level Moncton Center
05:08PM 45.9000 -71.1167 270° West 210 242 20,000  Level Moncton Center
05:09PM 45.8833 -71.2000 254° West 210 242 20,000  Level Montreal Center
05:10PM 45.8667 -71.2667 250° West 210 242 20,000  Level Montreal Center
05:11PM 45.8667 -71.3667 270° West 210 242 20,000  Level Montreal Center
05:12PM 45.8667 -71.4333 270° West 200 230 20,000  Level Montreal Center
05:13PM 45.8500 -71.5333 257° West 210 242 20,000  Level Montreal Center
05:14PM 45.8333 -71.6167 254° West 210 242 20,000  Level Montreal Center
05:15PM 45.8500 -71.6833 290° West 210 242 20,000  Level Montreal Center
05:16PM 45.8333 -71.7833 257° West 210 242 20,000  Level Montreal Center
05:17PM 45.8167 -71.8500 250° West 210 242 20,000  Level Montreal Center
05:18PM 45.8167 -71.9333 270° West 210 242 20,000  Level Montreal Center
05:19PM 45.8000 -72.0167 254° West 210 242 20,000  Level Montreal Center
05:20PM 45.7833 -72.1000 254° West 210 242 20,000 -60 Level Montreal Center
05:21PM 45.8000 -72.2000 283° West 210 242 19,900 -300 Descending Montreal Center
05:22PM 45.7833 -72.2667 250° West 220 253 19,400 -600 Descending Montreal Center
05:23PM 45.7667 -72.3667 257° West 230 265 18,700 -840 Descending Montreal Center
05:24PM 45.7667 -72.4667 270° West 250 288 17,800 -1,020 Descending Montreal Center
05:25PM 45.7500 -72.5500 254° West 250 288 16,700 -1,140 Descending Montreal Center
05:26PM 45.7500 -72.6500 270° West 250 288 15,600 -1,200 Descending Montreal Center
05:27PM 45.7333 -72.7500 257° West 250 288 14,400 -1,320 Descending Montreal Center
05:28PM 45.7333 -72.8667 270° West 260 299 13,000 -1,440 Descending Montreal Center
05:29PM 45.7167 -72.9667 257° West 260 299 11,600 -1,500 Descending Montreal Center
05:30PM 45.7000 -73.0667 257° West 260 299 10,000 -1,440 Descending Montreal Center
05:31PM 45.6833 -73.1667 257° West 240 276 8,800 -1,140 Descending Montreal Center
05:32PM 45.6833 -73.2500 270° West 240 276 7,800 -1,140 Descending Montreal Center
05:33PM 45.6667 -73.3500 257° West 240 276 6,600 -1,380 Descending Montreal Center
05:34PM 45.6500 -73.4500 257° West 230 265 5,100 -1,380 Descending Montreal Center
05:35PM 45.6167 -73.5167 234° Southwest 230 265 3,900 -1,260 Descending Montreal Center
05:36PM 45.5667 -73.6000 229° Southwest 230 265 2,600 -1,320 Descending Montreal Center